Time;durP1;ratioP1;P1;durP2;ratioP2;P2;SDS_P1;SDS_P2;PMS_P1;PMS_P2;Temp;Humidity;BMP_temperature;BMP_pressure;BME280_temperature;BME280_humidity;BME280_pressure;Samples;Min_cycle;Max_cycle;Signal;HPM_P1;HPM_P2
2021/04/03 00:00:16;;;;;;;19.85;4.05;;;7.60;63.70;;;;;;5134661;27;20475;-71
2021/04/03 00:02:42;;;;;;;14.40;3.17;;;7.60;63.70;;;;;;5114715;28;20062;-72
2021/04/03 00:05:09;;;;;;;14.57;2.90;;;7.60;63.80;;;;;;5134154;27;20091;-72
2021/04/03 00:07:35;;;;;;;16.83;3.85;;;7.60;63.60;;;;;;5098708;27;20039;-72
2021/04/03 00:10:04;;;;;;;13.73;3.63;;;7.60;63.70;;;;;;5116269;27;20479;-71
2021/04/03 00:12:30;;;;;;;10.63;2.42;;;7.60;63.70;;;;;;5134270;27;20039;-71
2021/04/03 00:14:56;;;;;;;11.82;3.67;;;7.60;63.60;;;;;;5133673;27;20047;-71
2021/04/03 00:17:21;;;;;;;12.73;3.40;;;7.60;63.60;;;;;;5134143;27;20099;-71
2021/04/03 00:19:47;;;;;;;14.57;3.92;;;7.60;63.60;;;;;;5115255;27;20153;-70
2021/04/03 00:22:13;;;;;;;11.30;2.78;;;7.60;63.60;;;;;;5134075;27;20195;-71
2021/04/03 00:24:39;;;;;;;14.30;3.75;;;7.60;63.60;;;;;;5133526;27;20115;-71
2021/04/03 00:27:05;;;;;;;14.45;4.20;;;7.60;63.60;;;;;;5115557;27;20092;-72
2021/04/03 00:29:31;;;;;;;12.82;3.20;;;7.60;63.50;;;;;;5134036;27;20058;-71
2021/04/03 00:31:56;;;;;;;11.10;3.35;;;7.60;63.50;;;;;;5133242;27;20347;-71
2021/04/03 00:34:22;;;;;;;15.45;3.35;;;7.60;63.50;;;;;;5133871;27;20059;-72
2021/04/03 00:36:48;;;;;;;16.45;4.15;;;7.60;63.40;;;;;;5133200;27;20340;-71
2021/04/03 00:39:13;;;;;;;16.00;3.25;;;7.60;63.40;;;;;;5133817;27;20129;-71
2021/04/03 00:41:39;;;;;;;20.25;4.65;;;7.60;63.40;;;;;;5133250;27;20046;-73
2021/04/03 00:44:07;;;;;;;11.52;3.47;;;7.60;63.40;;;;;;5115464;27;20103;-72
2021/04/03 00:46:32;;;;;;;16.88;4.93;;;7.60;63.40;;;;;;5133751;27;20071;-72
2021/04/03 00:48:58;;;;;;;11.57;3.15;;;7.50;63.40;;;;;;5132724;27;20482;-71
2021/04/03 00:51:24;;;;;;;11.27;3.22;;;7.50;63.50;;;;;;5115178;27;20081;-71
2021/04/03 00:53:50;;;;;;;14.95;3.70;;;7.50;63.60;;;;;;5132952;27;20531;-71
2021/04/03 00:56:16;;;;;;;14.10;4.15;;;7.50;63.60;;;;;;5133432;27;20125;-71
2021/04/03 00:58:42;;;;;;;14.45;3.15;;;7.50;63.70;;;;;;5097638;27;20051;-73
2021/04/03 01:01:07;;;;;;;13.75;3.00;;;7.50;63.70;;;;;;5098164;27;20112;-72
2021/04/03 01:03:33;;;;;;;13.70;4.25;;;7.50;63.70;;;;;;5115103;27;20039;-72
2021/04/03 01:05:59;;;;;;;16.40;3.55;;;7.50;63.70;;;;;;5114387;27;20122;-72
2021/04/03 01:08:25;;;;;;;13.45;3.75;;;7.60;63.70;;;;;;5114974;27;20142;-71
2021/04/03 01:10:52;;;;;;;12.77;3.85;;;7.50;63.70;;;;;;5132466;27;20042;-72
2021/04/03 01:13:32;;;;;;;13.77;3.67;;;7.50;63.70;;;;;;5114998;27;20039;-71
2021/04/03 01:16:28;;;;;;;19.40;4.53;;;7.40;63.70;;;;;;5132244;27;20091;-71
2021/04/03 01:19:05;;;;;;;18.58;4.68;;;7.40;63.80;;;;;;5115038;27;20108;-72
2021/04/03 01:21:43;;;;;;;14.82;3.83;;;7.40;63.80;;;;;;5134197;27;20134;-72
2021/04/03 01:24:48;;;;;;;18.05;4.68;;;7.40;63.80;;;;;;5136275;27;20039;-71
2021/04/03 01:27:23;;;;;;;12.80;3.22;;;7.40;63.90;;;;;;5105917;27;20436;-72
2021/04/03 01:30:11;;;;;;;17.38;3.50;;;7.40;63.90;;;;;;5117801;27;20039;-71
2021/04/03 01:32:55;;;;;;;23.75;4.38;;;7.30;63.90;;;;;;5118618;27;20527;-73
2021/04/03 01:35:31;;;;;;;18.80;4.30;;;7.30;64.00;;;;;;5118642;27;20043;-72
2021/04/03 01:38:01;;;;;;;24.33;4.38;;;7.30;64.00;;;;;;5118142;27;20107;-70
2021/04/03 01:40:27;;;;;;;15.57;3.60;;;7.30;64.20;;;;;;5101924;27;20035;-71
2021/04/03 01:42:57;;;;;;;18.35;3.90;;;7.30;64.20;;;;;;5119556;27;20091;-72
2021/04/03 01:45:23;;;;;;;15.05;4.13;;;7.20;64.20;;;;;;5120380;27;20091;-71
2021/04/03 01:47:50;;;;;;;16.23;3.50;;;7.20;64.30;;;;;;5102733;27;20050;-72
2021/04/03 01:50:15;;;;;;;18.88;5.22;;;7.20;64.40;;;;;;5102536;27;20035;-71
2021/04/03 01:52:41;;;;;;;18.85;4.50;;;7.20;64.40;;;;;;5082293;27;20486;-71
2021/04/03 01:55:11;;;;;;;18.35;5.40;;;7.10;64.50;;;;;;5096725;27;20270;-72
2021/04/03 01:57:38;;;;;;;17.17;3.83;;;7.10;64.60;;;;;;5097294;27;20043;-72
2021/04/03 02:00:09;;;;;;;18.67;4.30;;;7.10;64.60;;;;;;5131814;27;20096;-72
2021/04/03 02:02:34;;;;;;;20.70;4.68;;;7.10;64.70;;;;;;5114828;27;20053;-72
2021/04/03 02:05:00;;;;;;;24.50;4.75;;;7.10;64.80;;;;;;5113457;27;20043;-72
2021/04/03 02:07:26;;;;;;;14.40;4.35;;;7.10;64.90;;;;;;5114058;28;20043;-72
2021/04/03 02:09:53;;;;;;;18.45;4.32;;;7.00;65.00;;;;;;5096561;28;20053;-73
2021/04/03 02:12:19;;;;;;;22.77;4.03;;;7.00;65.00;;;;;;5113974;28;20071;-71
2021/04/03 02:14:49;;;;;;;17.88;4.18;;;7.00;65.00;;;;;;5114072;28;20074;-71
2021/04/03 02:17:18;;;;;;;19.75;4.93;;;7.00;65.20;;;;;;5096998;28;20039;-72
2021/04/03 02:19:44;;;;;;;19.23;5.18;;;7.00;65.70;;;;;;5113869;28;20050;-72
2021/04/03 02:22:11;;;;;;;19.17;4.22;;;6.90;65.30;;;;;;5131631;28;20043;-72
2021/04/03 02:24:37;;;;;;;17.42;5.00;;;6.90;65.40;;;;;;5097005;28;20043;-72
2021/04/03 02:27:03;;;;;;;22.55;6.28;;;6.90;65.50;;;;;;5132975;27;20054;-72
2021/04/03 02:29:28;;;;;;;16.80;4.15;;;6.90;65.60;;;;;;5136405;27;20039;-71
2021/04/03 02:31:54;;;;;;;21.85;5.80;;;6.90;65.60;;;;;;5117420;27;20498;-71
2021/04/03 02:34:20;;;;;;;19.55;5.30;;;6.90;65.70;;;;;;5136560;27;20051;-71
2021/04/03 02:36:46;;;;;;;22.00;5.55;;;6.80;65.70;;;;;;5136315;27;20420;-71
2021/04/03 02:39:11;;;;;;;21.13;4.47;;;6.80;65.80;;;;;;5135677;27;20058;-71
2021/04/03 02:41:50;;;;;;;18.67;4.50;;;6.90;66.00;;;;;;5117872;27;20042;-72
2021/04/03 02:44:29;;;;;;;18.65;4.85;;;6.80;66.00;;;;;;5118412;27;20072;-72
2021/04/03 02:47:04;;;;;;;18.10;4.75;;;6.80;66.20;;;;;;5100883;27;20433;-72
2021/04/03 02:49:37;;;;;;;19.58;4.35;;;6.80;66.20;;;;;;5101541;27;20046;-71
2021/04/03 02:52:03;;;;;;;;;;;6.80;66.30;;;;;;5117521;27;20043;-71
2021/04/03 02:54:29;;;;;;;18.42;5.00;;;6.80;66.80;;;;;;5117323;27;20265;-71
2021/04/03 02:56:57;;;;;;;23.10;5.78;;;6.70;66.20;;;;;;5117058;27;20039;-73
2021/04/03 02:59:27;;;;;;;18.17;4.88;;;6.80;66.40;;;;;;5117762;27;20126;-71
2021/04/03 03:01:53;;;;;;;23.02;4.60;;;6.70;66.40;;;;;;5117743;27;20418;-71
2021/04/03 03:04:19;;;;;;;20.08;5.32;;;6.70;66.60;;;;;;5099829;27;20121;-72
2021/04/03 03:06:45;;;;;;;19.50;6.18;;;6.70;66.70;;;;;;5117375;27;20031;-71
2021/04/03 03:09:16;;;;;;;19.83;4.57;;;6.70;66.70;;;;;;5099923;27;20100;-71
2021/04/03 03:11:44;;;;;;;22.25;6.30;;;6.70;66.80;;;;;;5101047;27;20044;-71
2021/04/03 03:14:13;;;;;;;26.98;5.50;;;6.70;66.90;;;;;;5117062;27;20047;-72
2021/04/03 03:16:40;;;;;;;22.50;5.32;;;6.70;67.00;;;;;;5100800;27;20145;-71
2021/04/03 03:19:12;;;;;;;22.23;5.40;;;6.70;67.10;;;;;;5116299;27;20047;-71
2021/04/03 03:21:38;;;;;;;;;;;6.70;67.10;;;;;;5118633;27;20054;-71
2021/04/03 03:24:08;;;;;;;17.85;4.35;;;6.70;67.80;;;;;;5134934;27;19919;-73
2021/04/03 03:26:34;;;;;;;19.50;6.68;;;6.70;67.20;;;;;;5116830;27;20115;-72
2021/04/03 03:29:02;;;;;;;16.95;4.78;;;6.70;67.20;;;;;;5116429;27;20130;-73
2021/04/03 03:31:28;;;;;;;22.77;5.63;;;6.70;67.30;;;;;;5117067;27;20035;-71
2021/04/03 03:33:53;;;;;;;21.50;5.28;;;6.70;67.40;;;;;;5135066;27;20394;-71
2021/04/03 03:36:20;;;;;;;26.08;5.15;;;6.70;67.50;;;;;;5099031;27;20440;-72
2021/04/03 03:38:45;;;;;;;23.70;5.63;;;6.70;67.70;;;;;;5099790;27;20062;-73
2021/04/03 03:41:11;;;;;;;28.52;6.10;;;6.80;67.80;;;;;;5099278;27;20043;-71
2021/04/03 03:43:37;;;;;;;25.30;5.70;;;6.70;67.80;;;;;;5100029;27;20100;-71
2021/04/03 03:46:06;;;;;;;21.85;5.65;;;6.70;67.90;;;;;;5134325;27;20071;-72
2021/04/03 03:48:33;;;;;;;24.65;5.90;;;6.80;68.00;;;;;;5134938;27;20035;-71
2021/04/03 03:50:59;;;;;;;23.02;5.60;;;6.80;68.00;;;;;;5116484;27;20088;-72
2021/04/03 03:53:24;;;;;;;23.52;6.82;;;6.80;68.00;;;;;;5134214;27;20118;-71
2021/04/03 03:55:50;;;;;;;25.63;6.20;;;6.80;68.10;;;;;;5116574;27;20088;-71
2021/04/03 03:58:16;;;;;;;26.08;6.32;;;6.80;68.20;;;;;;5115362;27;20039;-72
2021/04/03 04:00:42;;;;;;;23.63;5.55;;;6.80;68.20;;;;;;5116294;27;20077;-71
2021/04/03 04:03:08;;;;;;;23.30;5.43;;;6.90;68.40;;;;;;5134122;27;20043;-71
2021/04/03 04:05:34;;;;;;;25.08;5.80;;;6.80;68.30;;;;;;5134309;27;20053;-72
2021/04/03 04:08:01;;;;;;;23.13;5.57;;;6.80;68.30;;;;;;5134666;27;20043;-71
2021/04/03 04:10:27;;;;;;;23.58;6.03;;;6.90;68.50;;;;;;5133962;27;20039;-72
2021/04/03 04:12:53;;;;;;;18.98;5.50;;;6.90;68.50;;;;;;5134178;27;20054;-72
2021/04/03 04:15:19;;;;;;;28.25;5.80;;;6.90;68.60;;;;;;5133904;27;20035;-71
2021/04/03 04:17:44;;;;;;;31.48;6.13;;;6.90;68.60;;;;;;5134297;27;20043;-72
2021/04/03 04:20:11;;;;;;;29.15;7.05;;;6.90;68.70;;;;;;5115471;27;20050;-71
2021/04/03 04:22:36;;;;;;;21.52;7.75;;;6.90;68.80;;;;;;5116067;27;20043;-71
2021/04/03 04:25:02;;;;;;;20.25;5.95;;;6.90;68.90;;;;;;5134338;27;20149;-71
2021/04/03 04:27:28;;;;;;;24.88;6.82;;;6.90;69.10;;;;;;5133997;27;20160;-72
2021/04/03 04:29:54;;;;;;;31.77;6.53;;;6.90;69.10;;;;;;5134124;27;20066;-71
2021/04/03 04:32:20;;;;;;;29.48;7.05;;;6.90;69.30;;;;;;5133469;27;20031;-71
2021/04/03 04:34:46;;;;;;;23.85;6.70;;;6.90;69.40;;;;;;5133676;27;20487;-71
2021/04/03 04:37:11;;;;;;;25.27;6.72;;;6.90;69.40;;;;;;5133598;27;20075;-71
2021/04/03 04:39:37;;;;;;;27.50;6.65;;;6.90;69.50;;;;;;5133873;27;20127;-70
2021/04/03 04:42:05;;;;;;;27.15;7.57;;;6.90;69.50;;;;;;5115844;27;20046;-70
2021/04/03 04:44:31;;;;;;;21.00;6.10;;;6.90;69.60;;;;;;5115100;27;20042;-70
2021/04/03 04:46:56;;;;;;;33.88;7.50;;;7.00;69.70;;;;;;5115555;27;20394;-71
2021/04/03 04:49:22;;;;;;;27.42;6.35;;;7.00;70.00;;;;;;5114093;27;20055;-70
2021/04/03 04:51:48;;;;;;;25.55;5.82;;;7.00;70.00;;;;;;5133711;27;20139;-70
2021/04/03 04:54:13;;;;;;;22.48;6.45;;;7.00;70.10;;;;;;5133118;27;20058;-72
2021/04/03 04:56:39;;;;;;;23.70;6.80;;;7.00;70.10;;;;;;5133400;27;20050;-71
2021/04/03 04:59:05;;;;;;;33.58;6.75;;;7.00;70.40;;;;;;5133375;27;20393;-71
2021/04/03 05:01:33;;;;;;;29.10;7.70;;;7.10;70.40;;;;;;5133157;27;20069;-72
2021/04/03 05:03:59;;;;;;;28.85;6.90;;;7.00;70.50;;;;;;5133710;27;20047;-70
2021/04/03 05:06:24;;;;;;;24.15;6.47;;;7.10;70.50;;;;;;5114627;27;20472;-70
2021/04/03 05:08:50;;;;;;;29.23;7.07;;;7.10;70.60;;;;;;5133503;27;20455;-72
2021/04/03 05:11:16;;;;;;;35.78;7.95;;;7.10;70.50;;;;;;5132872;27;20091;-72
2021/04/03 05:13:42;;;;;;;24.92;6.68;;;7.10;70.50;;;;;;5115071;27;20047;-71
2021/04/03 05:16:08;;;;;;;27.15;7.25;;;7.10;70.60;;;;;;5115171;27;20039;-70
2021/04/03 05:18:33;;;;;;;28.00;6.32;;;7.10;70.60;;;;;;5114261;27;20463;-70
2021/04/03 05:20:59;;;;;;;23.08;7.30;;;7.10;70.50;;;;;;5133217;27;20054;-70
2021/04/03 05:23:25;;;;;;;24.60;7.15;;;7.20;70.60;;;;;;5132624;27;20497;-72
2021/04/03 05:25:50;;;;;;;22.15;6.38;;;7.20;70.60;;;;;;5114705;27;20467;-72
2021/04/03 05:28:16;;;;;;;30.13;6.50;;;7.20;70.60;;;;;;5114000;27;20096;-71
2021/04/03 05:30:42;;;;;;;28.40;7.15;;;7.20;70.50;;;;;;5133019;27;20043;-71
2021/04/03 05:33:09;;;;;;;23.85;6.30;;;7.20;70.70;;;;;;5114370;27;20340;-70
2021/04/03 05:35:34;;;;;;;27.08;7.18;;;7.20;70.60;;;;;;5114094;27;20042;-71
2021/04/03 05:38:00;;;;;;;24.65;6.75;;;7.30;70.70;;;;;;5132996;27;20039;-71
2021/04/03 05:40:26;;;;;;;21.30;6.53;;;7.30;70.60;;;;;;5132434;27;20065;-70
2021/04/03 05:42:52;;;;;;;26.70;8.20;;;7.30;70.70;;;;;;5132909;27;20043;-71
2021/04/03 05:45:18;;;;;;;34.20;7.10;;;7.30;70.60;;;;;;5113670;27;20054;-73
2021/04/03 05:47:43;;;;;;;25.55;8.23;;;7.30;70.60;;;;;;5097419;27;20043;-71
2021/04/03 05:50:10;;;;;;;27.98;6.95;;;7.30;70.60;;;;;;5132765;27;20096;-71
2021/04/03 05:52:36;;;;;;;30.35;7.53;;;7.40;70.50;;;;;;5096906;27;20035;-71
2021/04/03 05:55:02;;;;;;;25.35;6.30;;;7.40;70.50;;;;;;5080664;27;20043;-72
2021/04/03 05:57:28;;;;;;;23.67;6.60;;;7.40;70.50;;;;;;5131969;27;20043;-72
2021/04/03 05:59:54;;;;;;;24.63;5.85;;;7.40;70.50;;;;;;5097417;28;20047;-70
2021/04/03 06:02:20;;;;;;;25.75;6.53;;;7.40;70.50;;;;;;5131009;27;20043;-72
2021/04/03 06:04:46;;;;;;;29.63;7.57;;;7.50;70.60;;;;;;5132778;27;20479;-71
2021/04/03 06:07:13;;;;;;;25.08;6.38;;;7.50;70.70;;;;;;5132535;27;20047;-71
2021/04/03 06:09:39;;;;;;;23.33;6.10;;;7.50;70.70;;;;;;5115635;28;20191;-71
2021/04/03 06:12:05;;;;;;;27.40;7.38;;;7.50;70.70;;;;;;5136485;27;20475;-72
2021/04/03 06:14:35;;;;;;;27.38;6.40;;;7.60;70.80;;;;;;5117977;28;20498;-72
2021/04/03 06:17:01;;;;;;;31.45;7.65;;;7.60;70.80;;;;;;5137166;28;20180;-71
2021/04/03 06:19:27;;;;;;;25.30;7.28;;;7.60;70.70;;;;;;5100881;28;20088;-72
2021/04/03 06:21:53;;;;;;;24.45;6.47;;;7.60;70.60;;;;;;5118500;28;20394;-71
2021/04/03 06:24:20;;;;;;;30.35;6.75;;;7.60;70.70;;;;;;5136295;28;20039;-72
2021/04/03 06:26:57;;;;;;;24.08;6.03;;;7.70;70.70;;;;;;5117786;28;20043;-72
2021/04/03 06:29:32;;;;;;;26.30;6.88;;;7.70;70.80;;;;;;5135955;28;20075;-73
2021/04/03 06:31:58;;;;;;;26.48;6.03;;;7.70;70.80;;;;;;5118427;28;20035;-72
2021/04/03 06:34:35;;;;;;;25.58;7.90;;;7.70;70.60;;;;;;5118332;28;20085;-72
2021/04/03 06:37:02;;;;;;;29.40;7.35;;;7.80;70.70;;;;;;5118913;28;20046;-71
2021/04/03 06:39:28;;;;;;;24.60;6.32;;;7.80;70.60;;;;;;5136910;28;20047;-72
2021/04/03 06:41:54;;;;;;;23.63;8.05;;;7.80;70.60;;;;;;5118049;28;20055;-72
2021/04/03 06:44:22;;;;;;;29.98;7.45;;;7.80;70.60;;;;;;5136265;28;20054;-72
2021/04/03 06:46:48;;;;;;;22.95;7.07;;;7.80;70.50;;;;;;5117390;28;20050;-71
2021/04/03 06:49:14;;;;;;;24.27;6.60;;;7.90;70.40;;;;;;5117609;28;20043;-71
2021/04/03 06:51:40;;;;;;;29.95;7.60;;;7.90;70.40;;;;;;5136200;28;20428;-72
2021/04/03 06:54:07;;;;;;;19.40;6.20;;;7.90;70.40;;;;;;5119469;28;20076;-72
2021/04/03 06:56:36;;;;;;;23.13;6.88;;;8.00;70.40;;;;;;5101957;28;20076;-71
2021/04/03 06:59:12;;;;;;;23.58;6.40;;;8.00;70.30;;;;;;5137953;28;20127;-71
2021/04/03 07:01:38;;;;;;;23.08;7.43;;;8.00;70.30;;;;;;5118802;28;20043;-72
2021/04/03 07:04:13;;;;;;;22.20;7.07;;;8.10;70.20;;;;;;5137604;28;20220;-72
2021/04/03 07:06:39;;;;;;;22.00;6.35;;;8.10;70.10;;;;;;5137896;28;20073;-72
2021/04/03 07:09:05;;;;;;;26.45;6.95;;;8.20;70.00;;;;;;5119576;28;20039;-72
2021/04/03 07:11:32;;;;;;;27.40;7.10;;;8.20;69.90;;;;;;5119366;28;20039;-73
2021/04/03 07:13:59;;;;;;;25.23;5.95;;;8.30;69.90;;;;;;5123694;27;20052;-72
2021/04/03 07:16:25;;;;;;;25.73;5.88;;;8.30;69.90;;;;;;5107728;27;20043;-72
2021/04/03 07:18:50;;;;;;;30.65;8.88;;;8.40;69.80;;;;;;5124966;27;20054;-72
2021/04/03 07:21:16;;;;;;;27.42;6.45;;;8.40;69.60;;;;;;5125742;27;20039;-71
2021/04/03 07:23:42;;;;;;;20.77;6.65;;;8.40;69.50;;;;;;5104199;27;20043;-73
2021/04/03 07:26:12;;;;;;;25.05;6.38;;;8.50;69.50;;;;;;5121050;27;20384;-72
2021/04/03 07:28:41;;;;;;;25.10;7.13;;;8.60;69.60;;;;;;5104468;27;20479;-72
2021/04/03 07:31:08;;;;;;;20.98;5.80;;;8.60;69.40;;;;;;5120839;27;20471;-72
2021/04/03 07:33:34;;;;;;;22.65;6.03;;;8.70;69.30;;;;;;5103146;27;20080;-72
2021/04/03 07:36:01;;;;;;;28.10;6.88;;;8.70;69.10;;;;;;5103970;27;20051;-71
2021/04/03 07:38:27;;;;;;;21.27;6.63;;;8.80;69.00;;;;;;5121013;27;20059;-71
2021/04/03 07:40:54;;;;;;;23.05;5.88;;;8.80;68.90;;;;;;5138772;27;20534;-72
2021/04/03 07:43:40;;;;;;;23.05;6.93;;;8.90;68.70;;;;;;5139273;27;20058;-71
2021/04/03 07:46:08;;;;;;;21.42;5.85;;;9.00;68.50;;;;;;5120743;27;20054;-71
2021/04/03 07:48:46;;;;;;;20.83;7.40;;;9.00;68.30;;;;;;5120628;27;20124;-73
2021/04/03 07:51:24;;;;;;;29.13;6.50;;;9.00;68.00;;;;;;5104184;27;20585;-72
2021/04/03 07:53:51;;;;;;;27.13;6.28;;;9.10;67.90;;;;;;5138782;27;20177;-71
2021/04/03 07:56:19;;;;;;;26.60;6.10;;;9.10;67.70;;;;;;5116624;27;20039;-72
2021/04/03 07:58:52;;;;;;;19.70;6.53;;;9.10;67.70;;;;;;5116116;27;20043;-71
2021/04/03 08:01:25;;;;;;;19.77;5.47;;;9.20;67.80;;;;;;5116972;27;20139;-73
2021/04/03 08:03:55;;;;;;;20.05;6.70;;;9.20;67.50;;;;;;5134196;27;20046;-72
2021/04/03 08:06:41;;;;;;;28.67;6.45;;;9.20;67.20;;;;;;5134441;27;20061;-71
2021/04/03 08:09:15;;;;;;;27.00;8.10;;;9.20;66.80;;;;;;5134588;27;20058;-72
2021/04/03 08:11:47;;;;;;;25.83;6.47;;;9.20;66.80;;;;;;5115633;27;20039;-72
2021/04/03 08:14:14;;;;;;;24.88;7.72;;;9.10;66.70;;;;;;5116038;27;20043;-72
2021/04/03 08:16:40;;;;;;;21.17;7.80;;;9.20;66.70;;;;;;5133516;27;20376;-72
2021/04/03 08:19:06;;;;;;;19.60;6.50;;;9.20;66.70;;;;;;5134388;27;20042;-73
2021/04/03 08:21:43;;;;;;;22.60;7.10;;;9.30;66.60;;;;;;5098856;27;20126;-72
2021/04/03 08:24:09;;;;;;;21.08;6.13;;;9.30;66.50;;;;;;5098030;27;20042;-73
2021/04/03 08:26:35;;;;;;;21.40;6.47;;;9.40;66.50;;;;;;5115829;27;20043;-72
2021/04/03 08:29:01;;;;;;;23.40;6.65;;;9.40;66.40;;;;;;5134239;27;20031;-71
2021/04/03 08:31:28;;;;;;;24.23;6.45;;;9.40;66.30;;;;;;5134199;27;20039;-73
2021/04/03 08:34:00;;;;;;;20.90;5.45;;;9.40;66.10;;;;;;5133188;27;20436;-72
2021/04/03 08:36:27;;;;;;;23.80;6.18;;;9.30;65.90;;;;;;5098679;27;20091;-72
2021/04/03 08:38:53;;;;;;;24.17;6.22;;;9.40;65.90;;;;;;5133377;27;20440;-72
2021/04/03 08:41:26;;;;;;;25.95;6.45;;;9.40;65.80;;;;;;5133955;27;20063;-72
2021/04/03 08:43:52;;;;;;;25.63;7.40;;;9.40;65.70;;;;;;5133435;27;20039;-72
2021/04/03 08:46:19;;;;;;;21.15;6.32;;;9.40;65.60;;;;;;5133870;27;20152;-72
2021/04/03 08:48:46;;;;;;;20.90;5.60;;;9.50;65.60;;;;;;5098005;27;20046;-73
2021/04/03 08:51:12;;;;;;;21.88;6.60;;;9.50;65.60;;;;;;5115361;27;20077;-71
2021/04/03 08:53:40;;;;;;;23.45;6.00;;;9.50;65.50;;;;;;5115276;27;20424;-72
2021/04/03 08:56:06;;;;;;;17.92;6.72;;;9.50;65.50;;;;;;5133359;27;20069;-73
2021/04/03 08:58:32;;;;;;;26.20;6.22;;;9.60;65.50;;;;;;5133458;27;20530;-72
2021/04/03 09:00:58;;;;;;;18.20;5.38;;;9.60;65.50;;;;;;5114473;27;20059;-73
2021/04/03 09:03:24;;;;;;;25.83;7.28;;;9.70;65.60;;;;;;5114899;27;20115;-72
2021/04/03 09:05:51;;;;;;;23.85;7.43;;;9.70;65.40;;;;;;5097790;27;20039;-72
2021/04/03 09:08:21;;;;;;;21.17;7.28;;;9.70;65.40;;;;;;5115133;27;20142;-72
2021/04/03 09:10:58;;;;;;;24.02;6.70;;;9.70;65.20;;;;;;5114574;27;20043;-71
2021/04/03 09:13:36;;;;;;;17.23;5.43;;;9.70;64.90;;;;;;5133279;27;20035;-72
2021/04/03 09:16:13;;;;;;;16.17;5.30;;;9.70;64.90;;;;;;5135446;27;20369;-71
2021/04/03 09:18:42;;;;;;;24.50;5.88;;;9.80;64.80;;;;;;5105083;27;20050;-72
2021/04/03 09:21:19;;;;;;;23.20;5.88;;;9.80;65.20;;;;;;5140852;27;20046;-72
2021/04/03 09:23:50;;;;;;;14.07;4.85;;;9.80;65.00;;;;;;5101195;27;20081;-72
2021/04/03 09:26:16;;;;;;;18.20;5.43;;;9.90;64.60;;;;;;5119345;27;20103;-72
2021/04/03 09:28:42;;;;;;;19.50;5.22;;;9.90;64.10;;;;;;5137134;27;20618;-71
2021/04/03 09:31:09;;;;;;;17.02;5.20;;;9.90;64.00;;;;;;5117198;27;20083;-71
2021/04/03 09:33:48;;;;;;;17.50;5.35;;;10.00;64.20;;;;;;5114720;27;20055;-72
2021/04/03 09:36:15;;;;;;;16.67;5.03;;;10.00;64.30;;;;;;5136802;27;20153;-71
2021/04/03 09:38:42;;;;;;;20.88;5.88;;;10.10;63.80;;;;;;5136579;27;20077;-72
2021/04/03 09:41:26;;;;;;;21.35;4.93;;;10.10;63.40;;;;;;5117965;27;20039;-72
2021/04/03 09:43:53;;;;;;;19.60;6.07;;;10.20;63.60;;;;;;5134604;27;20367;-71
2021/04/03 09:46:19;;;;;;;18.45;5.13;;;10.20;63.40;;;;;;5132969;27;20148;-72
2021/04/03 09:48:44;;;;;;;19.52;5.20;;;10.30;63.20;;;;;;5132962;27;20524;-72
2021/04/03 09:51:10;;;;;;;19.65;5.70;;;10.40;62.80;;;;;;5113708;27;20047;-71
2021/04/03 09:53:36;;;;;;;19.55;6.22;;;10.40;62.60;;;;;;5114351;27;20066;-73
2021/04/03 09:56:03;;;;;;;20.95;5.88;;;10.40;62.90;;;;;;5131862;27;20050;-74
2021/04/03 09:58:28;;;;;;;22.77;5.68;;;10.50;63.00;;;;;;5132225;27;20047;-72
2021/04/03 10:00:54;;;;;;;18.48;5.82;;;10.60;63.30;;;;;;5132093;27;20113;-72
2021/04/03 10:03:20;;;;;;;19.33;5.07;;;10.70;63.20;;;;;;5133146;27;20039;-72
2021/04/03 10:05:46;;;;;;;17.08;6.57;;;10.80;62.60;;;;;;5117352;27;20043;-71
2021/04/03 10:08:12;;;;;;;21.80;5.85;;;10.80;61.60;;;;;;5113791;27;20141;-73
2021/04/03 10:10:39;;;;;;;15.98;5.53;;;10.90;62.00;;;;;;5136576;27;20063;-73
2021/04/03 10:13:07;;;;;;;17.08;5.07;;;11.00;62.20;;;;;;5118372;28;20095;-73
2021/04/03 10:15:33;;;;;;;13.68;6.43;;;11.10;61.60;;;;;;5118106;28;20051;-72
2021/04/03 10:17:59;;;;;;;16.77;5.45;;;11.20;61.30;;;;;;5083992;28;20043;-72
2021/04/03 10:20:24;;;;;;;19.65;4.85;;;11.40;60.90;;;;;;5139164;28;20134;-73
2021/04/03 10:22:50;;;;;;;22.23;5.20;;;11.50;60.70;;;;;;5119144;28;20623;-74
2021/04/03 10:25:16;;;;;;;17.90;5.35;;;11.60;60.40;;;;;;5135258;28;20482;-72
2021/04/03 10:27:42;;;;;;;19.42;5.25;;;11.80;60.40;;;;;;5116224;28;20066;-73
2021/04/03 10:30:08;;;;;;;16.88;5.30;;;12.00;60.30;;;;;;5114166;28;20043;-72
2021/04/03 10:32:34;;;;;;;16.63;4.80;;;12.20;60.40;;;;;;5136561;28;20110;-72
2021/04/03 10:34:59;;;;;;;17.55;5.50;;;12.40;60.40;;;;;;5134951;28;20169;-72
2021/04/03 10:37:25;;;;;;;19.73;5.35;;;12.70;59.90;;;;;;5136073;28;20049;-72
2021/04/03 10:39:51;;;;;;;18.70;5.07;;;12.90;59.40;;;;;;5117338;28;20460;-72
2021/04/03 10:42:17;;;;;;;18.63;5.28;;;13.00;58.90;;;;;;5137600;28;20122;-72
2021/04/03 10:44:42;;;;;;;18.40;5.07;;;13.20;58.50;;;;;;5139509;28;20039;-71
2021/04/03 10:47:08;;;;;;;16.73;5.20;;;13.40;58.40;;;;;;5138303;27;20039;-72
2021/04/03 10:49:34;;;;;;;15.90;4.80;;;13.50;58.00;;;;;;5142892;27;20043;-71
2021/04/03 10:52:00;;;;;;;16.98;4.30;;;13.60;57.20;;;;;;5142434;27;20066;-71
2021/04/03 10:54:25;;;;;;;15.75;4.78;;;13.80;56.90;;;;;;5140791;27;20122;-71
2021/04/03 10:56:52;;;;;;;16.35;4.80;;;13.90;56.30;;;;;;5122029;27;20036;-71
2021/04/03 10:59:18;;;;;;;12.43;4.30;;;14.00;56.20;;;;;;5122234;27;20068;-72
2021/04/03 11:01:43;;;;;;;14.45;5.03;;;14.00;55.50;;;;;;5122841;27;20134;-71
2021/04/03 11:04:09;;;;;;;12.27;4.13;;;14.20;54.80;;;;;;5141688;27;20486;-72
2021/04/03 11:06:35;;;;;;;15.13;4.40;;;14.20;54.80;;;;;;5090741;27;20115;-72
2021/04/03 11:09:02;;;;;;;17.60;5.43;;;14.40;54.70;;;;;;5142903;27;20050;-70
2021/04/03 11:11:28;;;;;;;11.13;4.45;;;14.50;54.90;;;;;;5125015;27;20031;-71
2021/04/03 11:13:53;;;;;;;16.05;5.75;;;14.70;54.20;;;;;;5124459;27;20081;-72
2021/04/03 11:16:19;;;;;;;18.45;4.95;;;14.90;53.90;;;;;;5142408;27;20455;-73
2021/04/03 11:18:45;;;;;;;16.75;4.80;;;15.00;53.00;;;;;;5143341;27;20043;-73
2021/04/03 11:21:10;;;;;;;15.13;4.28;;;15.20;52.80;;;;;;5142947;27;20054;-72
2021/04/03 11:23:36;;;;;;;14.32;5.15;;;15.30;52.70;;;;;;5124839;27;20110;-71
2021/04/03 11:26:02;;;;;;;14.38;4.57;;;15.60;52.70;;;;;;5142376;27;20039;-71
2021/04/03 11:28:27;;;;;;;13.45;4.25;;;15.80;52.50;;;;;;5124008;27;20036;-72
2021/04/03 11:30:53;;;;;;;11.27;4.35;;;16.00;52.20;;;;;;5142781;27;20046;-71
2021/04/03 11:33:19;;;;;;;12.77;3.95;;;16.30;52.00;;;;;;5124121;27;20449;-72
2021/04/03 11:35:45;;;;;;;11.88;4.43;;;16.60;51.50;;;;;;5142007;27;20082;-72
2021/04/03 11:38:11;;;;;;;15.02;4.30;;;16.90;51.00;;;;;;5123879;27;20147;-72
2021/04/03 11:40:37;;;;;;;16.05;4.70;;;17.20;50.00;;;;;;5123527;27;20058;-71
2021/04/03 11:43:03;;;;;;;14.07;4.45;;;17.20;49.10;;;;;;5123595;27;20039;-71
2021/04/03 11:45:29;;;;;;;16.60;4.57;;;17.20;48.50;;;;;;5106998;27;20051;-70
2021/04/03 11:47:55;;;;;;;12.98;4.70;;;17.20;48.00;;;;;;5141713;27;20403;-71
2021/04/03 11:50:21;;;;;;;10.10;4.00;;;17.20;48.00;;;;;;5141482;27;20062;-70
2021/04/03 11:52:47;;;;;;;11.93;4.68;;;17.30;47.80;;;;;;5105961;27;20047;-73
2021/04/03 11:55:15;;;;;;;12.23;4.40;;;17.50;47.30;;;;;;5123282;27;20061;-71
2021/04/03 11:57:41;;;;;;;14.05;4.72;;;17.70;46.90;;;;;;5123488;27;20035;-72
2021/04/03 12:00:09;;;;;;;14.73;5.05;;;17.80;46.50;;;;;;5141600;27;20066;-73
2021/04/03 12:02:35;;;;;;;15.88;4.95;;;17.90;46.00;;;;;;5141620;27;20122;-71
2021/04/03 12:05:02;;;;;;;13.65;4.85;;;17.90;45.70;;;;;;5141662;27;20045;-71
2021/04/03 12:07:28;;;;;;;15.75;5.22;;;17.90;45.40;;;;;;5123421;27;20054;-71
2021/04/03 12:09:54;;;;;;;12.13;4.97;;;18.00;45.20;;;;;;5141519;27;20043;-70
2021/04/03 12:12:20;;;;;;;15.43;4.90;;;18.10;45.20;;;;;;5141049;27;20065;-71
2021/04/03 12:14:46;;;;;;;15.95;4.75;;;18.00;45.10;;;;;;5141474;27;20547;-72
2021/04/03 12:17:11;;;;;;;16.52;4.50;;;17.90;44.60;;;;;;5140955;27;20068;-72
2021/04/03 12:19:37;;;;;;;15.55;4.53;;;17.70;44.30;;;;;;5141436;27;20047;-72
2021/04/03 12:22:03;;;;;;;13.13;4.93;;;17.50;44.60;;;;;;5141745;27;20571;-72
2021/04/03 12:24:29;;;;;;;11.55;4.50;;;17.30;44.50;;;;;;5141462;27;20047;-73
2021/04/03 12:26:55;;;;;;;11.88;4.00;;;17.10;44.50;;;;;;5140402;27;20039;-71
2021/04/03 12:29:21;;;;;;;11.57;5.05;;;16.90;44.40;;;;;;5121470;27;20543;-69
2021/04/03 12:31:47;;;;;;;12.50;4.53;;;16.80;44.50;;;;;;5121573;27;20043;-71
2021/04/03 12:34:12;;;;;;;8.77;3.92;;;16.80;44.80;;;;;;5121114;27;20047;-72
2021/04/03 12:36:38;;;;;;;12.82;4.47;;;16.70;45.50;;;;;;5140564;27;20443;-71
2021/04/03 12:39:04;;;;;;;11.02;4.47;;;16.70;45.10;;;;;;5141074;27;20047;-71
2021/04/03 12:41:30;;;;;;;12.63;4.80;;;16.60;44.90;;;;;;5105364;27;20043;-72
2021/04/03 12:43:56;;;;;;;16.77;5.03;;;16.60;44.80;;;;;;5122719;27;20043;-72
2021/04/03 12:46:21;;;;;;;14.90;4.68;;;16.50;44.80;;;;;;5140425;27;20035;-71